sensor_id;sensor_type;location;lat;lon;timestamp;temperature;humidity
6903;DHT22;20232;49.408;8.702;2023-02-01T05:00:24;5.90;99.90
6903;DHT22;20232;49.408;8.702;2023-02-01T05:02:50;5.90;99.90
6903;DHT22;20232;49.408;8.702;2023-02-01T05:05:16;5.90;99.90
6903;DHT22;20232;49.408;8.702;2023-02-01T05:07:41;6.00;99.90
6903;DHT22;20232;49.408;8.702;2023-02-01T05:10:07;6.00;99.90
6903;DHT22;20232;49.408;8.702;2023-02-01T05:12:33;6.00;99.90
6903;DHT22;20232;49.408;8.702;2023-02-01T05:15:17;6.00;99.90
6903;DHT22;20232;49.408;8.702;2023-02-01T05:17:43;6.00;99.90
6903;DHT22;20232;49.408;8.702;2023-02-01T05:20:09;6.00;99.90
6903;DHT22;20232;49.408;8.702;2023-02-01T05:22:35;5.90;99.90
6903;DHT22;20232;49.408;8.702;2023-02-01T05:25:00;5.80;99.90
6903;DHT22;20232;49.408;8.702;2023-02-01T05:27:26;5.90;99.90
6903;DHT22;20232;49.408;8.702;2023-02-01T05:29:54;5.80;99.90
6903;DHT22;20232;49.408;8.702;2023-02-01T05:32:20;5.90;99.90
6903;DHT22;20232;49.408;8.702;2023-02-01T05:34:45;5.90;99.90
6903;DHT22;20232;49.408;8.702;2023-02-01T05:37:11;5.80;99.90
6903;DHT22;20232;49.408;8.702;2023-02-01T05:39:37;5.70;99.90
6903;DHT22;20232;49.408;8.702;2023-02-01T05:42:02;5.60;99.90
6903;DHT22;20232;49.408;8.702;2023-02-01T05:44:28;5.60;99.90
6903;DHT22;20232;49.408;8.702;2023-02-01T05:46:53;5.50;99.90
6903;DHT22;20232;49.408;8.702;2023-02-01T05:49:19;5.50;99.90
6903;DHT22;20232;49.408;8.702;2023-02-01T05:51:44;5.50;99.90
6903;DHT22;20232;49.408;8.702;2023-02-01T05:54:10;5.40;99.90
6903;DHT22;20232;49.408;8.702;2023-02-01T05:56:36;5.40;99.90
6903;DHT22;20232;49.408;8.702;2023-02-01T05:59:01;5.40;99.90
6903;DHT22;20232;49.408;8.702;2023-02-01T06:01:27;5.50;99.90
6903;DHT22;20232;49.408;8.702;2023-02-01T06:03:52;5.40;99.90
6903;DHT22;20232;49.408;8.702;2023-02-01T06:06:18;5.40;99.90
6903;DHT22;20232;49.408;8.702;2023-02-01T06:08:45;5.40;99.90
6903;DHT22;20232;49.408;8.702;2023-02-01T06:11:10;5.40;99.90
6903;DHT22;20232;49.408;8.702;2023-02-01T06:13:36;5.40;99.90
6903;DHT22;20232;49.408;8.702;2023-02-01T06:16:04;5.40;99.90
6903;DHT22;20232;49.408;8.702;2023-02-01T06:18:31;5.40;99.90
6903;DHT22;20232;49.408;8.702;2023-02-01T06:20:57;5.50;99.90
6903;DHT22;20232;49.408;8.702;2023-02-01T06:23:25;5.50;99.90
6903;DHT22;20232;49.408;8.702;2023-02-01T06:25:52;5.50;99.90
6903;DHT22;20232;49.408;8.702;2023-02-01T06:28:17;5.50;99.90
6903;DHT22;20232;49.408;8.702;2023-02-01T06:30:43;5.50;99.90
6903;DHT22;20232;49.408;8.702;2023-02-01T06:33:12;5.50;99.90
6903;DHT22;20232;49.408;8.702;2023-02-01T06:35:40;5.50;99.90
6903;DHT22;20232;49.408;8.702;2023-02-01T06:38:07;5.60;99.90
6903;DHT22;20232;49.408;8.702;2023-02-01T06:40:33;5.60;99.90
6903;DHT22;20232;49.408;8.702;2023-02-01T06:42:58;5.60;99.90
6903;DHT22;20232;49.408;8.702;2023-02-01T06:45:24;5.60;99.90
6903;DHT22;20232;49.408;8.702;2023-02-01T06:47:50;5.60;99.90
6903;DHT22;20232;49.408;8.702;2023-02-01T06:50:16;5.60;99.90
6903;DHT22;20232;49.408;8.702;2023-02-01T06:52:41;5.60;99.90
6903;DHT22;20232;49.408;8.702;2023-02-01T06:55:07;5.60;99.90
6903;DHT22;20232;49.408;8.702;2023-02-01T06:57:33;5.60;99.90
6903;DHT22;20232;49.408;8.702;2023-02-01T06:59:59;5.60;99.90
6903;DHT22;20232;49.408;8.702;2023-02-01T07:02:25;5.60;99.90
6903;DHT22;20232;49.408;8.702;2023-02-01T07:04:50;5.60;99.90
6903;DHT22;20232;49.408;8.702;2023-02-01T07:07:16;5.60;99.90
6903;DHT22;20232;49.408;8.702;2023-02-01T07:09:42;5.60;99.90
6903;DHT22;20232;49.408;8.702;2023-02-01T07:12:07;5.60;99.90
6903;DHT22;20232;49.408;8.702;2023-02-01T07:14:36;5.60;99.90
6903;DHT22;20232;49.408;8.702;2023-02-01T07:17:01;5.70;99.90
6903;DHT22;20232;49.408;8.702;2023-02-01T07:19:27;5.70;99.90
6903;DHT22;20232;49.408;8.702;2023-02-01T07:21:52;5.70;99.90
6903;DHT22;20232;49.408;8.702;2023-02-01T07:24:18;5.60;99.90
6903;DHT22;20232;49.408;8.702;2023-02-01T07:26:44;5.70;99.90
6903;DHT22;20232;49.408;8.702;2023-02-01T07:29:09;5.70;99.90
6903;DHT22;20232;49.408;8.702;2023-02-01T07:31:35;5.70;99.90
6903;DHT22;20232;49.408;8.702;2023-02-01T07:34:00;5.80;99.90
6903;DHT22;20232;49.408;8.702;2023-02-01T07:36:27;5.80;99.90
6903;DHT22;20232;49.408;8.702;2023-02-01T07:38:53;5.80;99.90
6903;DHT22;20232;49.408;8.702;2023-02-01T07:41:20;5.90;99.90
6903;DHT22;20232;49.408;8.702;2023-02-01T07:43:45;5.90;99.90
6903;DHT22;20232;49.408;8.702;2023-02-01T07:46:11;5.90;99.90
6903;DHT22;20232;49.408;8.702;2023-02-01T07:48:37;5.90;99.90
6903;DHT22;20232;49.408;8.702;2023-02-01T07:51:04;6.00;99.90
6903;DHT22;20232;49.408;8.702;2023-02-01T07:53:32;6.10;99.90
6903;DHT22;20232;49.408;8.702;2023-02-01T07:55:58;6.10;99.90
6903;DHT22;20232;49.408;8.702;2023-02-01T07:58:24;6.20;99.90
6903;DHT22;20232;49.408;8.702;2023-02-01T08:00:50;6.20;99.90
6903;DHT22;20232;49.408;8.702;2023-02-01T08:03:36;6.20;99.90
6903;DHT22;20232;49.408;8.702;2023-02-01T08:06:02;6.20;99.90
6903;DHT22;20232;49.408;8.702;2023-02-01T08:08:28;6.20;99.90
6903;DHT22;20232;49.408;8.702;2023-02-01T08:11:01;6.20;99.90
6903;DHT22;20232;49.408;8.702;2023-02-01T08:13:27;6.20;99.90
6903;DHT22;20232;49.408;8.702;2023-02-01T08:15:58;6.20;99.90
6903;DHT22;20232;49.408;8.702;2023-02-01T08:18:23;6.20;99.90
6903;DHT22;20232;49.408;8.702;2023-02-01T08:20:49;6.20;99.90
6903;DHT22;20232;49.408;8.702;2023-02-01T08:23:14;6.20;99.90
6903;DHT22;20232;49.408;8.702;2023-02-01T08:25:40;6.20;99.90
6903;DHT22;20232;49.408;8.702;2023-02-01T08:28:07;6.20;99.90
6903;DHT22;20232;49.408;8.702;2023-02-01T08:30:32;6.20;99.90
6903;DHT22;20232;49.408;8.702;2023-02-01T08:32:58;6.30;99.90
6903;DHT22;20232;49.408;8.702;2023-02-01T08:35:24;6.40;99.90
6903;DHT22;20232;49.408;8.702;2023-02-01T08:37:50;6.50;99.90
6903;DHT22;20232;49.408;8.702;2023-02-01T08:40:16;6.60;99.90
6903;DHT22;20232;49.408;8.702;2023-02-01T08:42:41;6.60;99.90
6903;DHT22;20232;49.408;8.702;2023-02-01T08:45:25;6.60;99.90
6903;DHT22;20232;49.408;8.702;2023-02-01T08:47:52;6.50;99.90
6903;DHT22;20232;49.408;8.702;2023-02-01T08:50:18;6.50;99.90
6903;DHT22;20232;49.408;8.702;2023-02-01T08:52:45;6.40;99.90
6903;DHT22;20232;49.408;8.702;2023-02-01T08:55:11;6.40;99.90
6903;DHT22;20232;49.408;8.702;2023-02-01T08:57:37;6.40;99.90
6903;DHT22;20232;49.408;8.702;2023-02-01T09:00:05;6.40;99.90
6903;DHT22;20232;49.408;8.702;2023-02-01T09:02:31;6.40;99.90
6903;DHT22;20232;49.408;8.702;2023-02-01T09:04:56;6.50;99.90
6903;DHT22;20232;49.408;8.702;2023-02-01T09:07:22;6.50;99.90
6903;DHT22;20232;49.408;8.702;2023-02-01T09:09:47;6.50;99.90
6903;DHT22;20232;49.408;8.702;2023-02-01T09:12:13;6.50;99.90
6903;DHT22;20232;49.408;8.702;2023-02-01T09:14:39;6.40;99.90
6903;DHT22;20232;49.408;8.702;2023-02-01T09:17:04;6.40;99.90
6903;DHT22;20232;49.408;8.702;2023-02-01T09:19:31;6.40;99.90
6903;DHT22;20232;49.408;8.702;2023-02-01T09:21:57;6.40;99.90
6903;DHT22;20232;49.408;8.702;2023-02-01T09:24:23;6.40;99.90
6903;DHT22;20232;49.408;8.702;2023-02-01T09:26:48;6.40;99.90
6903;DHT22;20232;49.408;8.702;2023-02-01T09:29:14;6.50;99.90
6903;DHT22;20232;49.408;8.702;2023-02-01T09:31:40;6.50;99.90
6903;DHT22;20232;49.408;8.702;2023-02-01T09:34:06;6.60;99.90
6903;DHT22;20232;49.408;8.702;2023-02-01T09:36:33;6.60;99.90
6903;DHT22;20232;49.408;8.702;2023-02-01T09:38:59;6.70;99.90
6903;DHT22;20232;49.408;8.702;2023-02-01T09:41:43;6.80;99.90
6903;DHT22;20232;49.408;8.702;2023-02-01T09:46:55;6.80;99.90
6903;DHT22;20232;49.408;8.702;2023-02-01T09:49:30;6.90;99.90
6903;DHT22;20232;49.408;8.702;2023-02-01T09:51:59;7.00;99.90
6903;DHT22;20232;49.408;8.702;2023-02-01T09:54:27;7.00;99.90
6903;DHT22;20232;49.408;8.702;2023-02-01T09:57:17;7.10;99.90
6903;DHT22;20232;49.408;8.702;2023-02-01T09:59:49;7.10;99.90
6903;DHT22;20232;49.408;8.702;2023-02-01T10:02:22;7.20;99.90
6903;DHT22;20232;49.408;8.702;2023-02-01T10:04:49;7.10;99.90
6903;DHT22;20232;49.408;8.702;2023-02-01T10:15:30;7.00;99.90
6903;DHT22;20232;49.408;8.702;2023-02-01T10:21:02;7.10;99.90
6903;DHT22;20232;49.408;8.702;2023-02-01T10:26:24;7.10;99.90
6903;DHT22;20232;49.408;8.702;2023-02-01T10:28:57;7.10;99.90
6903;DHT22;20232;49.408;8.702;2023-02-01T10:31:26;7.00;99.90
6903;DHT22;20232;49.408;8.702;2023-02-01T10:34:01;7.10;99.90
6903;DHT22;20232;49.408;8.702;2023-02-01T10:36:39;7.10;99.90
6903;DHT22;20232;49.408;8.702;2023-02-01T10:39:06;7.10;99.90
6903;DHT22;20232;49.408;8.702;2023-02-01T10:41:36;7.10;99.90
6903;DHT22;20232;49.408;8.702;2023-02-01T10:44:09;7.10;99.90
6903;DHT22;20232;49.408;8.702;2023-02-01T10:46:37;7.10;99.90
6903;DHT22;20232;49.408;8.702;2023-02-01T10:49:04;7.20;99.90
6903;DHT22;20232;49.408;8.702;2023-02-01T10:52:02;7.10;99.90
6903;DHT22;20232;49.408;8.702;2023-02-01T10:54:36;7.10;99.90
6903;DHT22;20232;49.408;8.702;2023-02-01T10:59:46;7.10;99.90
6903;DHT22;20232;49.408;8.702;2023-02-01T11:02:32;7.10;99.90
6903;DHT22;20232;49.408;8.702;2023-02-01T11:05:00;7.10;99.90
6903;DHT22;20232;49.408;8.702;2023-02-01T11:07:27;7.10;99.90
6903;DHT22;20232;49.408;8.702;2023-02-01T11:09:55;7.10;99.90
6903;DHT22;20232;49.408;8.702;2023-02-01T11:12:36;7.10;99.90
6903;DHT22;20232;49.408;8.702;2023-02-01T11:15:22;7.20;99.90
6903;DHT22;20232;49.408;8.702;2023-02-01T11:17:49;7.20;99.90
6903;DHT22;20232;49.408;8.702;2023-02-01T11:20:38;7.20;99.90
6903;DHT22;20232;49.408;8.702;2023-02-01T11:23:05;7.30;99.90
6903;DHT22;20232;49.408;8.702;2023-02-01T11:25:37;7.30;99.90
6903;DHT22;20232;49.408;8.702;2023-02-01T11:28:03;7.30;99.90
6903;DHT22;20232;49.408;8.702;2023-02-01T11:30:38;7.30;99.90
6903;DHT22;20232;49.408;8.702;2023-02-01T11:33:06;7.20;99.90
6903;DHT22;20232;49.408;8.702;2023-02-01T11:35:37;7.20;99.90
6903;DHT22;20232;49.408;8.702;2023-02-01T11:38:13;7.20;99.90
6903;DHT22;20232;49.408;8.702;2023-02-01T11:40:42;7.20;99.90
6903;DHT22;20232;49.408;8.702;2023-02-01T11:43:26;7.20;99.90
6903;DHT22;20232;49.408;8.702;2023-02-01T11:46:02;7.30;99.90
6903;DHT22;20232;49.408;8.702;2023-02-01T11:48:32;7.30;99.90
6903;DHT22;20232;49.408;8.702;2023-02-01T11:56:35;7.20;99.90
6903;DHT22;20232;49.408;8.702;2023-02-01T11:59:29;7.20;99.90
6903;DHT22;20232;49.408;8.702;2023-02-01T12:16:23;7.20;99.90
6903;DHT22;20232;49.408;8.702;2023-02-01T12:19:20;7.20;99.90
6903;DHT22;20232;49.408;8.702;2023-02-01T12:22:44;7.20;99.90
6903;DHT22;20232;49.408;8.702;2023-02-01T12:28:02;7.20;99.90
6903;DHT22;20232;49.408;8.702;2023-02-01T12:31:08;7.30;99.90
6903;DHT22;20232;49.408;8.702;2023-02-01T12:36:36;7.30;99.90
6903;DHT22;20232;49.408;8.702;2023-02-01T12:39:28;7.30;99.90
6903;DHT22;20232;49.408;8.702;2023-02-01T12:42:09;7.30;99.90
6903;DHT22;20232;49.408;8.702;2023-02-01T12:44:45;7.30;99.90
6903;DHT22;20232;49.408;8.702;2023-02-01T12:47:24;7.30;99.90
6903;DHT22;20232;49.408;8.702;2023-02-01T12:52:44;7.30;99.90
6903;DHT22;20232;49.408;8.702;2023-02-01T12:57:46;7.30;99.90
6903;DHT22;20232;49.408;8.702;2023-02-01T13:05:34;7.30;99.90
6903;DHT22;20232;49.408;8.702;2023-02-01T13:08:11;7.30;99.90
6903;DHT22;20232;49.408;8.702;2023-02-01T13:10:45;7.30;99.90
6903;DHT22;20232;49.408;8.702;2023-02-01T13:13:32;7.30;99.90
6903;DHT22;20232;49.408;8.702;2023-02-01T13:16:19;7.30;99.90
6903;DHT22;20232;49.408;8.702;2023-02-01T13:18:51;7.30;99.90
6903;DHT22;20232;49.408;8.702;2023-02-01T13:21:24;7.20;99.90
6903;DHT22;20232;49.408;8.702;2023-02-01T13:23:51;7.30;99.90
6903;DHT22;20232;49.408;8.702;2023-02-01T13:26:17;7.30;99.90
6903;DHT22;20232;49.408;8.702;2023-02-01T13:28:47;7.20;99.90
6903;DHT22;20232;49.408;8.702;2023-02-01T13:37:26;7.30;99.90
6903;DHT22;20232;49.408;8.702;2023-02-01T13:40:04;7.30;99.90
6903;DHT22;20232;49.408;8.702;2023-02-01T13:45:52;7.30;99.90
6903;DHT22;20232;49.408;8.702;2023-02-01T13:48:40;7.20;99.90
6903;DHT22;20232;49.408;8.702;2023-02-01T13:51:07;7.20;99.90
6903;DHT22;20232;49.408;8.702;2023-02-01T13:53:36;7.20;99.90
6903;DHT22;20232;49.408;8.702;2023-02-01T13:56:22;7.20;99.90
6903;DHT22;20232;49.408;8.702;2023-02-01T13:58:50;7.20;99.90
6903;DHT22;20232;49.408;8.702;2023-02-01T14:03:53;7.30;99.90
6903;DHT22;20232;49.408;8.702;2023-02-01T14:11:52;7.30;99.90
6903;DHT22;20232;49.408;8.702;2023-02-01T14:17:34;7.30;99.90
6903;DHT22;20232;49.408;8.702;2023-02-01T14:23:03;7.30;99.90
6903;DHT22;20232;49.408;8.702;2023-02-01T14:25:33;7.30;99.90
6903;DHT22;20232;49.408;8.702;2023-02-01T14:27:59;7.30;99.90
6903;DHT22;20232;49.408;8.702;2023-02-01T14:30:25;7.30;99.90
6903;DHT22;20232;49.408;8.702;2023-02-01T14:32:50;7.30;99.90
6903;DHT22;20232;49.408;8.702;2023-02-01T14:35:24;7.30;99.90
6903;DHT22;20232;49.408;8.702;2023-02-01T14:37:52;7.30;99.90
6903;DHT22;20232;49.408;8.702;2023-02-01T14:40:26;7.30;99.90
6903;DHT22;20232;49.408;8.702;2023-02-01T14:42:53;7.30;99.90
6903;DHT22;20232;49.408;8.702;2023-02-01T14:58:18;7.30;99.90
6903;DHT22;20232;49.408;8.702;2023-02-01T15:00:50;7.30;99.90
6903;DHT22;20232;49.408;8.702;2023-02-01T15:06:00;7.30;99.90
6903;DHT22;20232;49.408;8.702;2023-02-01T15:08:33;7.30;99.90
6903;DHT22;20232;49.408;8.702;2023-02-01T15:11:06;7.30;99.90
6903;DHT22;20232;49.408;8.702;2023-02-01T15:13:33;7.30;99.90
6903;DHT22;20232;49.408;8.702;2023-02-01T15:16:14;7.30;99.90
6903;DHT22;20232;49.408;8.702;2023-02-01T15:18:40;7.30;99.90
6903;DHT22;20232;49.408;8.702;2023-02-01T15:21:13;7.30;99.90
6903;DHT22;20232;49.408;8.702;2023-02-01T15:23:40;7.30;99.90
6903;DHT22;20232;49.408;8.702;2023-02-01T15:26:05;7.30;99.90
6903;DHT22;20232;49.408;8.702;2023-02-01T15:28:31;7.30;99.90
6903;DHT22;20232;49.408;8.702;2023-02-01T15:31:04;7.40;99.90
6903;DHT22;20232;49.408;8.702;2023-02-01T15:33:31;7.40;99.90
6903;DHT22;20232;49.408;8.702;2023-02-01T15:36:09;7.50;99.90
6903;DHT22;20232;49.408;8.702;2023-02-01T15:38:42;7.50;99.90
6903;DHT22;20232;49.408;8.702;2023-02-01T15:41:19;7.50;99.90
6903;DHT22;20232;49.408;8.702;2023-02-01T15:46:39;7.60;99.90
6903;DHT22;20232;49.408;8.702;2023-02-01T15:49:05;7.50;99.90
6903;DHT22;20232;49.408;8.702;2023-02-01T15:51:44;7.60;99.90
6903;DHT22;20232;49.408;8.702;2023-02-01T15:54:20;7.60;99.90
6903;DHT22;20232;49.408;8.702;2023-02-01T15:56:53;7.60;99.90
6903;DHT22;20232;49.408;8.702;2023-02-01T15:59:24;7.60;99.90
6903;DHT22;20232;49.408;8.702;2023-02-01T16:01:53;7.60;99.90
6903;DHT22;20232;49.408;8.702;2023-02-01T16:04:24;7.60;99.90
6903;DHT22;20232;49.408;8.702;2023-02-01T16:07:02;7.60;99.90
6903;DHT22;20232;49.408;8.702;2023-02-01T16:09:52;7.50;99.90
6903;DHT22;20232;49.408;8.702;2023-02-01T16:12:44;7.50;99.90
6903;DHT22;20232;49.408;8.702;2023-02-01T16:15:11;7.50;99.90
6903;DHT22;20232;49.408;8.702;2023-02-01T16:17:37;7.50;99.90
6903;DHT22;20232;49.408;8.702;2023-02-01T16:20:03;7.50;99.90
6903;DHT22;20232;49.408;8.702;2023-02-01T16:22:28;7.60;99.90
6903;DHT22;20232;49.408;8.702;2023-02-01T16:24:54;7.50;99.90
6903;DHT22;20232;49.408;8.702;2023-02-01T16:27:19;7.50;99.90
6903;DHT22;20232;49.408;8.702;2023-02-01T16:29:47;7.50;99.90
6903;DHT22;20232;49.408;8.702;2023-02-01T16:32:17;7.50;99.90
6903;DHT22;20232;49.408;8.702;2023-02-01T16:34:44;7.40;99.90
6903;DHT22;20232;49.408;8.702;2023-02-01T16:37:17;7.40;99.90
6903;DHT22;20232;49.408;8.702;2023-02-01T16:39:44;7.40;99.90
6903;DHT22;20232;49.408;8.702;2023-02-01T16:42:14;7.40;99.90
6903;DHT22;20232;49.408;8.702;2023-02-01T16:44:40;7.40;99.90
6903;DHT22;20232;49.408;8.702;2023-02-01T16:47:14;7.40;99.90
6903;DHT22;20232;49.408;8.702;2023-02-01T16:49:41;7.40;99.90
6903;DHT22;20232;49.408;8.702;2023-02-01T16:52:16;7.40;99.90
6903;DHT22;20232;49.408;8.702;2023-02-01T16:54:43;7.40;99.90
6903;DHT22;20232;49.408;8.702;2023-02-01T16:57:13;7.40;99.90
6903;DHT22;20232;49.408;8.702;2023-02-01T16:59:40;7.50;99.90
6903;DHT22;20232;49.408;8.702;2023-02-01T17:02:08;7.50;99.90
6903;DHT22;20232;49.408;8.702;2023-02-01T17:04:35;7.50;99.90
6903;DHT22;20232;49.408;8.702;2023-02-01T17:07:01;7.50;99.90
6903;DHT22;20232;49.408;8.702;2023-02-01T17:09:35;7.40;99.90
6903;DHT22;20232;49.408;8.702;2023-02-01T17:12:02;7.40;99.90
6903;DHT22;20232;49.408;8.702;2023-02-01T17:14:38;7.40;99.90
6903;DHT22;20232;49.408;8.702;2023-02-01T17:17:05;7.40;99.90
6903;DHT22;20232;49.408;8.702;2023-02-01T17:19:33;7.40;99.90
6903;DHT22;20232;49.408;8.702;2023-02-01T17:21:58;7.40;99.90
6903;DHT22;20232;49.408;8.702;2023-02-01T17:24:27;7.40;99.90
6903;DHT22;20232;49.408;8.702;2023-02-01T17:26:53;7.50;99.90
6903;DHT22;20232;49.408;8.702;2023-02-01T17:29:19;7.50;99.90
6903;DHT22;20232;49.408;8.702;2023-02-01T17:31:48;7.50;99.90
6903;DHT22;20232;49.408;8.702;2023-02-01T17:34:14;7.40;99.90
6903;DHT22;20232;49.408;8.702;2023-02-01T17:36:42;7.50;99.90
6903;DHT22;20232;49.408;8.702;2023-02-01T17:39:08;7.40;99.90
6903;DHT22;20232;49.408;8.702;2023-02-01T17:41:35;7.50;99.90
6903;DHT22;20232;49.408;8.702;2023-02-01T17:44:01;7.50;99.90
6903;DHT22;20232;49.408;8.702;2023-02-01T17:46:27;7.50;99.90
6903;DHT22;20232;49.408;8.702;2023-02-01T17:48:53;7.50;99.90
6903;DHT22;20232;49.408;8.702;2023-02-01T17:51:22;7.50;99.90
6903;DHT22;20232;49.408;8.702;2023-02-01T17:53:49;7.50;99.90
6903;DHT22;20232;49.408;8.702;2023-02-01T17:56:17;7.50;99.90
6903;DHT22;20232;49.408;8.702;2023-02-01T17:58:43;7.50;99.90
6903;DHT22;20232;49.408;8.702;2023-02-01T18:01:15;7.50;99.90
6903;DHT22;20232;49.408;8.702;2023-02-01T18:03:42;7.50;99.90
6903;DHT22;20232;49.408;8.702;2023-02-01T18:06:18;7.50;99.90
6903;DHT22;20232;49.408;8.702;2023-02-01T18:08:45;7.50;99.90
6903;DHT22;20232;49.408;8.702;2023-02-01T18:11:14;7.50;99.90
6903;DHT22;20232;49.408;8.702;2023-02-01T18:13:41;7.50;99.90
6903;DHT22;20232;49.408;8.702;2023-02-01T18:16:22;7.50;99.90
6903;DHT22;20232;49.408;8.702;2023-02-01T18:18:49;7.50;99.90
6903;DHT22;20232;49.408;8.702;2023-02-01T18:21:16;7.50;99.90
6903;DHT22;20232;49.408;8.702;2023-02-01T18:23:42;7.50;99.90
6903;DHT22;20232;49.408;8.702;2023-02-01T18:26:12;7.50;99.90
6903;DHT22;20232;49.408;8.702;2023-02-01T18:28:38;7.50;99.90
6903;DHT22;20232;49.408;8.702;2023-02-01T18:31:05;7.50;99.90
6903;DHT22;20232;49.408;8.702;2023-02-01T18:33:31;7.50;99.90
6903;DHT22;20232;49.408;8.702;2023-02-01T18:35:57;7.50;99.90
6903;DHT22;20232;49.408;8.702;2023-02-01T18:38:22;7.50;99.90
6903;DHT22;20232;49.408;8.702;2023-02-01T18:40:50;7.50;99.90
6903;DHT22;20232;49.408;8.702;2023-02-01T18:43:16;7.50;99.90
6903;DHT22;20232;49.408;8.702;2023-02-01T18:45:43;7.50;99.90
6903;DHT22;20232;49.408;8.702;2023-02-01T18:48:11;7.50;99.90
6903;DHT22;20232;49.408;8.702;2023-02-01T18:50:39;7.50;99.90
6903;DHT22;20232;49.408;8.702;2023-02-01T18:53:09;7.40;99.90
6903;DHT22;20232;49.408;8.702;2023-02-01T18:55:35;7.40;99.90
6903;DHT22;20232;49.408;8.702;2023-02-01T18:58:03;7.40;99.90
6903;DHT22;20232;49.408;8.702;2023-02-01T19:00:31;7.40;99.90
6903;DHT22;20232;49.408;8.702;2023-02-01T19:02:57;7.40;99.90
6903;DHT22;20232;49.408;8.702;2023-02-01T19:05:22;7.40;99.90
6903;DHT22;20232;49.408;8.702;2023-02-01T19:07:48;7.30;99.90
6903;DHT22;20232;49.408;8.702;2023-02-01T19:10:16;7.30;99.90
6903;DHT22;20232;49.408;8.702;2023-02-01T19:12:42;7.40;99.90
6903;DHT22;20232;49.408;8.702;2023-02-01T19:15:11;7.40;99.90
6903;DHT22;20232;49.408;8.702;2023-02-01T19:17:38;7.30;99.90
6903;DHT22;20232;49.408;8.702;2023-02-01T19:20:06;7.40;99.90
6903;DHT22;20232;49.408;8.702;2023-02-01T19:22:31;7.30;99.90
6903;DHT22;20232;49.408;8.702;2023-02-01T19:24:57;7.40;99.90
6903;DHT22;20232;49.408;8.702;2023-02-01T19:27:23;7.30;99.90
6903;DHT22;20232;49.408;8.702;2023-02-01T19:29:49;7.30;99.90
6903;DHT22;20232;49.408;8.702;2023-02-01T19:32:15;7.30;99.90
6903;DHT22;20232;49.408;8.702;2023-02-01T19:34:41;7.30;99.90
6903;DHT22;20232;49.408;8.702;2023-02-01T19:37:07;7.30;99.90
6903;DHT22;20232;49.408;8.702;2023-02-01T19:39:33;7.30;99.90
6903;DHT22;20232;49.408;8.702;2023-02-01T19:41:58;7.30;99.90
6903;DHT22;20232;49.408;8.702;2023-02-01T19:44:25;7.30;99.90
6903;DHT22;20232;49.408;8.702;2023-02-01T19:46:53;7.30;99.90
6903;DHT22;20232;49.408;8.702;2023-02-01T19:49:18;7.30;99.90
6903;DHT22;20232;49.408;8.702;2023-02-01T19:51:44;7.30;99.90
6903;DHT22;20232;49.408;8.702;2023-02-01T19:54:11;7.30;99.90
6903;DHT22;20232;49.408;8.702;2023-02-01T19:56:36;7.30;99.90
6903;DHT22;20232;49.408;8.702;2023-02-01T19:59:03;7.40;99.90
6903;DHT22;20232;49.408;8.702;2023-02-01T20:01:32;7.30;99.90
6903;DHT22;20232;49.408;8.702;2023-02-01T20:03:59;7.30;99.90
6903;DHT22;20232;49.408;8.702;2023-02-01T20:06:30;7.30;99.90
6903;DHT22;20232;49.408;8.702;2023-02-01T20:08:57;7.40;99.90
6903;DHT22;20232;49.408;8.702;2023-02-01T20:11:23;7.40;99.90
6903;DHT22;20232;49.408;8.702;2023-02-01T20:13:54;7.40;99.90
6903;DHT22;20232;49.408;8.702;2023-02-01T20:16:20;7.40;99.90
6903;DHT22;20232;49.408;8.702;2023-02-01T20:18:46;7.40;99.90
6903;DHT22;20232;49.408;8.702;2023-02-01T20:21:13;7.40;99.90
6903;DHT22;20232;49.408;8.702;2023-02-01T20:23:39;7.40;99.90
6903;DHT22;20232;49.408;8.702;2023-02-01T20:26:05;7.40;99.90
6903;DHT22;20232;49.408;8.702;2023-02-01T20:28:32;7.40;99.90
6903;DHT22;20232;49.408;8.702;2023-02-01T20:30:58;7.40;99.90
6903;DHT22;20232;49.408;8.702;2023-02-01T20:33:24;7.40;99.90
6903;DHT22;20232;49.408;8.702;2023-02-01T20:35:52;7.40;99.90
6903;DHT22;20232;49.408;8.702;2023-02-01T20:38:18;7.40;99.90
6903;DHT22;20232;49.408;8.702;2023-02-01T20:40:43;7.40;99.90
6903;DHT22;20232;49.408;8.702;2023-02-01T20:43:09;7.40;99.90
6903;DHT22;20232;49.408;8.702;2023-02-01T20:45:39;7.40;99.90
6903;DHT22;20232;49.408;8.702;2023-02-01T20:48:05;7.40;99.90
6903;DHT22;20232;49.408;8.702;2023-02-01T20:50:31;7.40;99.90
6903;DHT22;20232;49.408;8.702;2023-02-01T20:52:56;7.40;99.90
6903;DHT22;20232;49.408;8.702;2023-02-01T20:55:22;7.40;99.90
6903;DHT22;20232;49.408;8.702;2023-02-01T20:57:49;7.40;99.90
6903;DHT22;20232;49.408;8.702;2023-02-01T21:00:15;7.40;99.90
6903;DHT22;20232;49.408;8.702;2023-02-01T21:02:42;7.40;99.90
6903;DHT22;20232;49.408;8.702;2023-02-01T21:05:08;7.40;99.90
6903;DHT22;20232;49.408;8.702;2023-02-01T21:07:35;7.40;99.90
6903;DHT22;20232;49.408;8.702;2023-02-01T21:10:02;7.40;99.90
6903;DHT22;20232;49.408;8.702;2023-02-01T21:12:28;7.50;99.90
6903;DHT22;20232;49.408;8.702;2023-02-01T21:14:53;7.40;99.90
6903;DHT22;20232;49.408;8.702;2023-02-01T21:17:20;7.40;99.90
6903;DHT22;20232;49.408;8.702;2023-02-01T21:19:46;7.40;99.90
6903;DHT22;20232;49.408;8.702;2023-02-01T21:22:13;7.50;99.90
6903;DHT22;20232;49.408;8.702;2023-02-01T21:24:40;7.40;99.90
6903;DHT22;20232;49.408;8.702;2023-02-01T21:27:07;7.40;99.90
6903;DHT22;20232;49.408;8.702;2023-02-01T21:29:32;7.40;99.90
6903;DHT22;20232;49.408;8.702;2023-02-01T21:31:58;7.40;99.90
6903;DHT22;20232;49.408;8.702;2023-02-01T21:34:24;7.40;99.90
6903;DHT22;20232;49.408;8.702;2023-02-01T21:36:49;7.40;99.90
6903;DHT22;20232;49.408;8.702;2023-02-01T21:39:15;7.40;99.90
6903;DHT22;20232;49.408;8.702;2023-02-01T21:41:42;7.40;99.90
6903;DHT22;20232;49.408;8.702;2023-02-01T21:44:27;7.40;99.90
6903;DHT22;20232;49.408;8.702;2023-02-01T21:46:53;7.40;99.90
6903;DHT22;20232;49.408;8.702;2023-02-01T21:49:23;7.50;99.90
6903;DHT22;20232;49.408;8.702;2023-02-01T21:51:53;7.50;99.90
6903;DHT22;20232;49.408;8.702;2023-02-01T21:54:18;7.50;99.90
6903;DHT22;20232;49.408;8.702;2023-02-01T21:56:44;7.50;99.90
6903;DHT22;20232;49.408;8.702;2023-02-01T21:59:10;7.50;99.90
6903;DHT22;20232;49.408;8.702;2023-02-01T22:01:37;7.50;99.90
6903;DHT22;20232;49.408;8.702;2023-02-01T22:04:03;7.50;99.90
6903;DHT22;20232;49.408;8.702;2023-02-01T22:06:35;7.50;99.90
6903;DHT22;20232;49.408;8.702;2023-02-01T22:09:01;7.50;99.90
6903;DHT22;20232;49.408;8.702;2023-02-01T22:11:28;7.50;99.90
6903;DHT22;20232;49.408;8.702;2023-02-01T22:13:53;7.50;99.90
6903;DHT22;20232;49.408;8.702;2023-02-01T22:16:19;7.50;99.90
6903;DHT22;20232;49.408;8.702;2023-02-01T22:18:49;7.50;99.90
6903;DHT22;20232;49.408;8.702;2023-02-01T22:21:16;7.50;99.90
6903;DHT22;20232;49.408;8.702;2023-02-01T22:23:42;7.50;99.90
6903;DHT22;20232;49.408;8.702;2023-02-01T22:26:09;7.50;99.90
6903;DHT22;20232;49.408;8.702;2023-02-01T22:28:37;7.50;99.90
6903;DHT22;20232;49.408;8.702;2023-02-01T22:31:04;7.50;99.90
6903;DHT22;20232;49.408;8.702;2023-02-01T22:33:31;7.50;99.90
6903;DHT22;20232;49.408;8.702;2023-02-01T22:35:58;7.50;99.90
6903;DHT22;20232;49.408;8.702;2023-02-01T22:38:23;7.50;99.90
6903;DHT22;20232;49.408;8.702;2023-02-01T22:41:04;7.50;99.90
6903;DHT22;20232;49.408;8.702;2023-02-01T22:43:31;7.50;99.90
6903;DHT22;20232;49.408;8.702;2023-02-01T22:46:02;7.50;99.90
6903;DHT22;20232;49.408;8.702;2023-02-01T22:48:29;7.50;99.90
6903;DHT22;20232;49.408;8.702;2023-02-01T22:50:56;7.50;99.90